Time;durP1;ratioP1;P1;durP2;ratioP2;P2;SDS_P1;SDS_P2;PMS_P1;PMS_P2;Temp;Humidity;BMP_temperature;BMP_pressure;BME280_temperature;BME280_humidity;BME280_pressure;Samples;Min_cycle;Max_cycle;Signal;HPM_P1;HPM_P2
2022/05/18 00:00:01;;;;;;;5.40;3.57;;;20.80;9.10;;;;;;5029802;28;20224;-69
2022/05/18 00:02:27;;;;;;;5.90;3.83;;;20.80;7.50;;;;;;5027224;28;20419;-70
2022/05/18 00:04:52;;;;;;;5.40;3.50;;;20.90;7.40;;;;;;5038496;28;20431;-69
2022/05/18 00:07:18;;;;;;;6.83;3.60;;;20.80;7.50;;;;;;5049317;28;20212;-69
2022/05/18 00:09:44;;;;;;;6.40;3.97;;;20.80;6.30;;;;;;5049676;28;20184;-69
2022/05/18 00:12:10;;;;;;;6.30;4.20;;;20.80;7.50;;;;;;5048493;28;20665;-69
2022/05/18 00:14:36;;;;;;;6.83;4.40;;;20.90;7.80;;;;;;5049984;28;20185;-70
2022/05/18 00:17:04;;;;;;;7.13;3.63;;;20.80;8.10;;;;;;5049809;28;20485;-70
2022/05/18 00:19:30;;;;;;;5.90;4.00;;;20.80;7.90;;;;;;5047456;28;20509;-70
2022/05/18 00:21:56;;;;;;;5.80;3.87;;;20.80;8.20;;;;;;5046856;28;20518;-70
2022/05/18 00:24:22;;;;;;;5.80;3.83;;;20.80;7.10;;;;;;5049688;28;20484;-70
2022/05/18 00:26:47;;;;;;;5.90;3.73;;;20.80;9.10;;;;;;5033171;28;20291;-69
2022/05/18 00:29:13;;;;;;;6.50;3.80;;;20.70;6.50;;;;;;5009566;28;20190;-70
2022/05/18 00:31:41;;;;;;;8.83;4.37;;;20.90;8.00;;;;;;5033018;28;20180;-70
2022/05/18 00:34:07;;;;;;;5.73;4.20;;;20.70;10.40;;;;;;5022864;28;20222;-70
2022/05/18 00:36:32;;;;;;;11.03;4.97;;;20.70;9.10;;;;;;5044796;28;20427;-70
2022/05/18 00:38:58;;;;;;;6.63;4.30;;;20.70;11.70;;;;;;5047797;28;20863;-70
2022/05/18 00:41:24;;;;;;;8.33;4.07;;;20.70;10.50;;;;;;5047728;28;20267;-70
2022/05/18 00:43:51;;;;;;;7.50;4.00;;;20.70;10.10;;;;;;5038718;28;20235;-70
2022/05/18 00:46:17;;;;;;;6.57;3.80;;;20.60;12.40;;;;;;5029436;28;20201;-70
2022/05/18 00:48:43;;;;;;;6.70;3.93;;;20.60;10.90;;;;;;5028342;28;20874;-70
2022/05/18 00:51:28;;;;;;;7.30;3.93;;;20.60;11.90;;;;;;5013331;28;20506;-69
2022/05/18 00:54:00;;;;;;;7.60;4.20;;;20.60;10.10;;;;;;5009394;28;20409;-69
2022/05/18 00:56:40;;;;;;;5.93;4.03;;;20.50;8.10;;;;;;5008363;28;20409;-69
2022/05/18 00:59:13;;;;;;;9.33;3.70;;;20.50;10.90;;;;;;5009398;28;20478;-70
2022/05/18 01:01:39;;;;;;;6.80;4.03;;;20.60;7.60;;;;;;5008247;28;20405;-70
2022/05/18 01:04:09;;;;;;;5.40;3.80;;;20.50;9.10;;;;;;5027153;28;20420;-69
2022/05/18 01:06:41;;;;;;;6.33;4.17;;;20.50;5.70;;;;;;5030999;28;20515;-70
2022/05/18 01:09:19;;;;;;;7.97;4.10;;;20.50;9.90;;;;;;5027262;28;20856;-70
2022/05/18 01:11:44;;;;;;;9.53;4.00;;;20.50;9.50;;;;;;5026456;28;20397;-70
2022/05/18 01:14:45;;;;;;;7.53;4.03;;;20.40;7.80;;;;;;5028577;28;20412;-70
2022/05/18 01:17:14;;;;;;;7.47;4.43;;;20.40;9.30;;;;;;5024399;28;20232;-70
2022/05/18 01:19:46;;;;;;;5.97;3.97;;;20.40;10.70;;;;;;5027637;28;20848;-71
2022/05/18 01:22:23;;;;;;;11.33;4.40;;;20.30;9.70;;;;;;5027477;28;20530;-68
2022/05/18 01:25:02;;;;;;;6.33;4.33;;;20.30;11.30;;;;;;5026584;28;20416;-70
2022/05/18 01:27:28;;;;;;;5.80;3.93;;;20.30;10.20;;;;;;5026596;28;20571;-70
2022/05/18 01:29:55;;;;;;;5.10;4.10;;;20.30;11.00;;;;;;5028665;28;20476;-70
2022/05/18 01:32:21;;;;;;;11.43;4.33;;;20.20;11.00;;;;;;5026449;28;20443;-69
2022/05/18 01:34:47;;;;;;;6.43;3.90;;;20.20;12.00;;;;;;5035256;28;20506;-70
2022/05/18 01:37:15;;;;;;;6.00;4.00;;;20.20;12.40;;;;;;5047495;28;20842;-71
2022/05/18 01:39:45;;;;;;;7.17;4.30;;;20.30;12.20;;;;;;5048004;28;20176;-69
2022/05/18 01:42:27;;;;;;;6.73;4.20;;;20.30;11.60;;;;;;5042557;28;20436;-70
2022/05/18 01:44:53;;;;;;;6.67;4.20;;;20.30;14.80;;;;;;5027618;28;20436;-70
2022/05/18 01:47:19;;;;;;;7.60;3.97;;;20.20;13.70;;;;;;5025577;28;20537;-69
2022/05/18 01:49:46;;;;;;;7.17;4.23;;;20.20;12.70;;;;;;5025458;28;20424;-70
2022/05/18 01:52:12;;;;;;;7.17;4.23;;;20.20;15.20;;;;;;5027678;28;20180;-70
2022/05/18 01:54:45;;;;;;;8.13;4.47;;;20.20;15.30;;;;;;5028078;28;20907;-69
2022/05/18 01:57:12;;;;;;;5.97;4.00;;;20.20;18.40;;;;;;5028002;28;20435;-70
2022/05/18 01:59:38;;;;;;;8.43;3.90;;;20.10;15.90;;;;;;5028517;28;20465;-70
2022/05/18 02:02:07;;;;;;;7.10;4.07;;;20.10;16.90;;;;;;5027448;28;20477;-70
2022/05/18 02:04:33;;;;;;;8.43;4.30;;;20.10;16.60;;;;;;5031247;28;20431;-70
2022/05/18 02:07:00;;;;;;;6.60;4.33;;;20.00;14.20;;;;;;5046746;28;20939;-70
2022/05/18 02:09:27;;;;;;;7.40;3.97;;;20.30;16.30;;;;;;5047900;28;20411;-71
2022/05/18 02:11:53;;;;;;;6.10;4.50;;;20.00;17.90;;;;;;5045706;28;21135;-70
2022/05/18 02:14:20;;;;;;;8.57;4.27;;;20.00;13.20;;;;;;5045793;28;20412;-70
2022/05/18 02:16:45;;;;;;;8.50;4.10;;;20.00;19.20;;;;;;5046136;28;20588;-70
2022/05/18 02:19:11;;;;;;;6.20;4.30;;;19.90;17.90;;;;;;5046978;28;20423;-70
2022/05/18 02:21:36;;;;;;;7.97;4.40;;;19.90;21.70;;;;;;5046723;28;20173;-70
2022/05/18 02:24:02;;;;;;;6.80;4.27;;;19.90;20.40;;;;;;5050252;28;20180;-70
2022/05/18 02:26:28;;;;;;;7.00;4.70;;;19.90;20.80;;;;;;5049652;28;20200;-70
2022/05/18 02:28:53;;;;;;;7.03;4.80;;;19.80;22.50;;;;;;5051044;28;20184;-70
2022/05/18 02:31:19;;;;;;;7.80;4.47;;;19.80;21.40;;;;;;5038572;28;20216;-70
2022/05/18 02:33:45;;;;;;;6.90;4.07;;;19.70;20.10;;;;;;5046341;28;20177;-69
2022/05/18 02:36:12;;;;;;;6.50;4.30;;;19.70;21.80;;;;;;5037555;28;20189;-70
2022/05/18 02:38:39;;;;;;;7.50;4.60;;;19.70;23.10;;;;;;5031267;28;20631;-70
2022/05/18 02:41:04;;;;;;;6.03;4.10;;;19.70;24.90;;;;;;5030155;28;20411;-68
2022/05/18 02:43:31;;;;;;;6.03;4.13;;;19.60;25.00;;;;;;5030497;28;20415;-70
2022/05/18 02:46:09;;;;;;;6.40;4.93;;;19.60;25.00;;;;;;5029253;28;20212;-70
2022/05/18 02:48:35;;;;;;;6.57;4.70;;;19.60;23.60;;;;;;5030100;28;20427;-70
2022/05/18 02:51:01;;;;;;;7.07;4.33;;;19.60;24.10;;;;;;5025741;28;20413;-69
2022/05/18 02:53:26;;;;;;;6.70;4.40;;;19.60;23.60;;;;;;5010474;28;20185;-70
2022/05/18 02:56:07;;;;;;;7.30;4.93;;;19.50;27.00;;;;;;5011067;28;20232;-71
2022/05/18 02:58:37;;;;;;;5.90;4.50;;;19.50;25.80;;;;;;5010767;28;20190;-70
2022/05/18 03:01:05;;;;;;;9.00;4.47;;;19.40;28.80;;;;;;5016935;28;20415;-70
2022/05/18 03:03:31;;;;;;;5.70;4.63;;;19.40;28.90;;;;;;5041564;28;20797;-70
2022/05/18 03:05:56;;;;;;;6.50;4.60;;;19.40;28.00;;;;;;5047451;28;20457;-70
2022/05/18 03:08:22;;;;;;;5.60;4.20;;;19.30;28.90;;;;;;5024374;28;20223;-70
2022/05/18 03:10:47;;;;;;;8.00;4.70;;;19.30;28.20;;;;;;5030709;28;20220;-70
2022/05/18 03:13:13;;;;;;;12.73;4.70;;;19.30;30.00;;;;;;5027972;28;20174;-71
2022/05/18 03:15:38;;;;;;;6.57;4.27;;;19.30;30.50;;;;;;5029329;28;20375;-70
2022/05/18 03:18:04;;;;;;;8.63;4.60;;;19.20;28.60;;;;;;5029847;28;20233;-70
2022/05/18 03:25:57;;;;;;;5.43;4.47;;;19.20;30.60;;;;;;5030326;28;20828;-69
2022/05/18 03:28:23;;;;;;;6.47;4.03;;;19.20;30.70;;;;;;5027995;28;20461;-69
2022/05/18 03:30:48;;;;;;;6.00;4.70;;;19.20;32.40;;;;;;5031602;28;20193;-69
2022/05/18 03:33:14;;;;;;;8.37;4.60;;;19.20;31.90;;;;;;5039872;28;20248;-69
2022/05/18 03:35:39;;;;;;;5.97;4.40;;;19.30;32.40;;;;;;5049720;28;20189;-69
2022/05/18 03:38:05;;;;;;;9.17;4.90;;;19.20;35.50;;;;;;5049302;28;20197;-69
2022/05/18 03:40:35;;;;;;;7.00;4.90;;;19.20;35.20;;;;;;5049584;28;20173;-69
2022/05/18 03:43:01;;;;;;;7.70;4.67;;;19.20;32.40;;;;;;5037990;28;20462;-69
2022/05/18 03:45:26;;;;;;;8.20;4.70;;;19.20;32.80;;;;;;5028893;28;20954;-69
2022/05/18 03:47:52;;;;;;;9.20;4.77;;;19.20;35.10;;;;;;5027393;28;20624;-70
2022/05/18 03:50:17;;;;;;;7.60;4.40;;;19.10;34.90;;;;;;5028584;28;20278;-69
2022/05/18 03:52:44;;;;;;;6.53;4.60;;;19.10;36.40;;;;;;5028733;28;20174;-70
2022/05/18 03:55:10;;;;;;;6.57;5.00;;;19.10;36.10;;;;;;5028186;28;20177;-70
2022/05/18 03:57:35;;;;;;;6.87;4.30;;;19.00;35.90;;;;;;5029672;28;20431;-69
2022/05/18 04:00:01;;;;;;;7.03;4.57;;;19.10;40.00;;;;;;5029103;28;20419;-70
2022/05/18 04:02:26;;;;;;;7.50;5.27;;;19.10;37.60;;;;;;5036362;28;20174;-69
2022/05/18 04:04:52;;;;;;;9.53;4.87;;;19.10;38.30;;;;;;5047471;28;20195;-70
2022/05/18 04:07:17;;;;;;;7.23;4.63;;;19.10;40.20;;;;;;5049316;28;20242;-70
2022/05/18 04:09:45;;;;;;;9.73;4.87;;;19.10;36.80;;;;;;5048880;28;20730;-69
2022/05/18 04:12:10;;;;;;;6.20;4.33;;;19.20;39.30;;;;;;5049506;28;20172;-70
2022/05/18 04:14:36;;;;;;;8.27;4.80;;;19.20;42.40;;;;;;5048866;28;20465;-69
2022/05/18 04:17:01;;;;;;;8.57;4.57;;;19.20;40.30;;;;;;5049233;28;20830;-70
2022/05/18 04:19:27;;;;;;;6.63;4.47;;;19.30;41.80;;;;;;5048450;28;20299;-70
2022/05/18 04:21:52;;;;;;;9.70;4.90;;;19.30;38.40;;;;;;5048185;28;20178;-69
2022/05/18 04:24:18;;;;;;;8.53;4.83;;;19.40;41.30;;;;;;5049311;28;20662;-70
2022/05/18 04:26:43;;;;;;;8.57;4.80;;;19.40;34.70;;;;;;5048690;28;20250;-70
2022/05/18 04:29:09;;;;;;;8.03;4.70;;;19.40;36.80;;;;;;5048647;28;20255;-70
2022/05/18 04:31:34;;;;;;;8.03;5.57;;;19.50;40.30;;;;;;5038601;28;20181;-69
2022/05/18 04:34:00;;;;;;;10.17;4.90;;;19.60;37.20;;;;;;5026590;28;20670;-70
2022/05/18 04:36:25;;;;;;;7.13;4.50;;;19.60;33.60;;;;;;5028723;28;20720;-69
2022/05/18 04:38:51;;;;;;;10.57;4.97;;;19.50;35.20;;;;;;5027301;28;20170;-70
2022/05/18 04:41:17;;;;;;;6.83;5.13;;;19.60;32.60;;;;;;5027893;28;20185;-69
2022/05/18 04:43:42;;;;;;;6.93;4.67;;;19.60;39.70;;;;;;5028607;28;20568;-70
2022/05/18 04:46:08;;;;;;;11.47;4.97;;;19.60;33.60;;;;;;5026208;28;20243;-69
2022/05/18 04:48:33;;;;;;;10.60;5.57;;;19.20;38.60;;;;;;5027871;28;20544;-70
2022/05/18 04:51:00;;;;;;;5.60;4.60;;;21.00;45.20;;;;;;5028629;28;20173;-68
2022/05/18 04:53:25;;;;;;;10.57;5.60;;;19.20;45.80;;;;;;5020697;28;20213;-70
2022/05/18 04:55:51;;;;;;;6.27;4.70;;;19.20;45.80;;;;;;5008857;28;20915;-69
2022/05/18 04:58:17;;;;;;;8.83;5.00;;;19.30;45.80;;;;;;5007114;28;20213;-70
2022/05/18 05:00:44;;;;;;;10.93;5.67;;;19.30;45.80;;;;;;5010950;28;20884;-70
2022/05/18 05:03:09;;;;;;;7.67;5.50;;;19.20;45.80;;;;;;5038576;28;20172;-70
2022/05/18 05:05:35;;;;;;;11.73;5.80;;;19.30;45.80;;;;;;5048493;28;20931;-70
2022/05/18 05:08:01;;;;;;;7.67;5.20;;;19.30;45.80;;;;;;5028799;28;20228;-69
2022/05/18 05:10:26;;;;;;;7.00;5.57;;;19.20;45.70;;;;;;5028249;28;20176;-70
2022/05/18 05:12:52;;;;;;;8.77;5.83;;;19.20;45.70;;;;;;5027814;28;20166;-70
2022/05/18 05:15:18;;;;;;;9.33;6.27;;;19.30;45.80;;;;;;5027986;28;20213;-70
2022/05/18 05:17:43;;;;;;;10.13;6.20;;;19.40;49.80;;;;;;5027409;28;20280;-69
2022/05/18 05:20:10;;;;;;;9.97;5.87;;;19.50;48.60;;;;;;5028519;28;20169;-70
2022/05/18 05:22:35;;;;;;;9.23;5.70;;;19.60;46.10;;;;;;5027430;28;20188;-70
2022/05/18 05:25:01;;;;;;;7.30;6.07;;;19.70;46.20;;;;;;5027753;28;20408;-70
2022/05/18 05:27:26;;;;;;;8.70;5.80;;;19.80;46.20;;;;;;5026848;28;20232;-71
2022/05/18 05:29:52;;;;;;;7.97;5.73;;;19.90;46.30;;;;;;5027564;28;20367;-70
2022/05/18 05:32:17;;;;;;;9.10;5.60;;;20.00;46.40;;;;;;5034791;28;20196;-70
2022/05/18 05:34:43;;;;;;;10.87;6.47;;;20.10;46.50;;;;;;5044635;28;20181;-70
2022/05/18 05:37:09;;;;;;;11.60;5.10;;;20.20;46.50;;;;;;5047867;28;20210;-69
2022/05/18 05:39:34;;;;;;;6.37;4.80;;;20.30;46.60;;;;;;5046463;28;20280;-70
2022/05/18 05:42:00;;;;;;;6.40;4.40;;;20.50;36.10;;;;;;5045688;28;20184;-70
2022/05/18 05:44:26;;;;;;;9.03;4.63;;;20.80;35.60;;;;;;5045756;28;20619;-70
2022/05/18 05:46:51;;;;;;;7.90;4.70;;;20.80;29.20;;;;;;5047734;28;20583;-71
2022/05/18 05:49:17;;;;;;;6.40;4.70;;;20.90;30.80;;;;;;5045761;28;20195;-71
2022/05/18 05:51:42;;;;;;;6.13;4.53;;;21.00;30.30;;;;;;5045279;28;20169;-71
2022/05/18 05:54:08;;;;;;;6.30;4.40;;;21.10;24.60;;;;;;5047717;28;20177;-71
2022/05/18 05:56:34;;;;;;;6.73;5.00;;;21.30;24.70;;;;;;5034055;28;20224;-71
2022/05/18 05:58:59;;;;;;;8.20;4.60;;;21.30;25.50;;;;;;5026833;28;20512;-71
2022/05/18 06:01:25;;;;;;;5.57;4.37;;;21.40;24.00;;;;;;5033059;28;20643;-71
2022/05/18 06:03:50;;;;;;;8.90;5.07;;;21.50;24.30;;;;;;5038434;28;20211;-71
2022/05/18 06:06:19;;;;;;;5.50;4.70;;;21.60;22.30;;;;;;5047227;28;20196;-69
2022/05/18 06:08:44;;;;;;;7.17;4.77;;;21.70;22.00;;;;;;5046380;28;20200;-70
2022/05/18 06:11:10;;;;;;;11.40;4.90;;;21.80;21.00;;;;;;5047046;28;20415;-71
2022/05/18 06:13:36;;;;;;;9.20;4.53;;;21.90;23.50;;;;;;5047295;28;20175;-71
2022/05/18 06:16:03;;;;;;;7.50;4.50;;;22.00;20.30;;;;;;5046805;28;20511;-71
2022/05/18 06:18:29;;;;;;;9.23;4.87;;;22.20;17.40;;;;;;5046522;28;20498;-71
2022/05/18 06:20:55;;;;;;;12.43;4.70;;;22.20;18.80;;;;;;5047439;28;20403;-70
2022/05/18 06:23:21;;;;;;;7.47;4.60;;;22.30;17.60;;;;;;5045463;28;20422;-71
2022/05/18 06:25:49;;;;;;;8.87;4.80;;;22.30;16.50;;;;;;5045790;28;20173;-71
2022/05/18 06:28:15;;;;;;;7.03;4.57;;;22.30;17.00;;;;;;5045702;28;20192;-71
2022/05/18 06:30:41;;;;;;;10.50;4.97;;;22.40;15.40;;;;;;5041738;28;20434;-71
2022/05/18 06:33:06;;;;;;;12.40;4.80;;;22.50;15.60;;;;;;5025689;28;20158;-71
2022/05/18 06:35:33;;;;;;;7.40;4.90;;;22.60;13.10;;;;;;5027443;28;20427;-71
2022/05/18 06:37:59;;;;;;;10.80;4.70;;;22.70;13.40;;;;;;5027256;28;20197;-71
2022/05/18 06:41:21;;;;;;;7.20;4.30;;;22.80;12.60;;;;;;5027794;28;20746;-71
2022/05/18 06:43:10;;;;;;;10.13;5.00;;;22.90;11.40;;;;;;5026893;28;20185;-71
2022/05/18 06:45:36;;;;;;;9.60;4.30;;;23.00;10.70;;;;;;5027279;28;20466;-71
2022/05/18 06:48:02;;;;;;;6.57;4.90;;;23.00;8.70;;;;;;5024884;28;20215;-71
2022/05/18 06:50:27;;;;;;;8.83;4.63;;;23.00;6.80;;;;;;5027626;28;20180;-70
2022/05/18 06:52:53;;;;;;;7.60;4.70;;;23.00;7.50;;;;;;5026503;28;20162;-71
2022/05/18 06:55:18;;;;;;;6.23;4.33;;;23.10;9.00;;;;;;5012651;28;20555;-71
2022/05/18 06:57:44;;;;;;;6.13;4.13;;;23.20;8.50;;;;;;5006120;28;20198;-70
2022/05/18 07:00:10;;;;;;;12.53;4.70;;;23.30;5.90;;;;;;5006200;28;20170;-71
2022/05/18 07:02:36;;;;;;;8.37;4.50;;;23.40;5.90;;;;;;5031109;28;20181;-70
2022/05/18 07:05:01;;;;;;;6.33;4.63;;;23.60;6.90;;;;;;5047130;28;20529;-70
2022/05/18 07:07:27;;;;;;;5.90;4.30;;;23.80;4.40;;;;;;5024115;28;20304;-69
2022/05/18 07:09:52;;;;;;;5.90;4.57;;;24.00;5.30;;;;;;5025900;28;20261;-70
2022/05/18 07:12:18;;;;;;;8.17;4.33;;;24.10;2.40;;;;;;5030304;28;20173;-70
2022/05/18 07:14:44;;;;;;;6.43;4.30;;;24.00;2.70;;;;;;5030186;28;20613;-70
2022/05/18 07:17:09;;;;;;;6.90;4.67;;;24.10;1.30;;;;;;5028972;28;20199;-69
2022/05/18 07:19:35;;;;;;;5.50;4.43;;;24.20;1.00;;;;;;5029923;28;20589;-70
2022/05/18 07:22:01;;;;;;;6.97;4.20;;;24.30;2.30;;;;;;5027741;28;20178;-70
2022/05/18 07:24:26;;;;;;;6.20;4.70;;;24.50;2.90;;;;;;5030808;28;20200;-70
2022/05/18 07:26:52;;;;;;;6.73;4.90;;;24.80;1.00;;;;;;5029748;28;20317;-70
2022/05/18 07:29:17;;;;;;;6.57;4.57;;;25.10;1.00;;;;;;5030119;28;20299;-70
2022/05/18 07:34:27;;;;;;;8.70;4.80;;;25.50;1.00;;;;;;5045240;28;20230;-70
2022/05/18 07:36:54;;;;;;;8.53;4.33;;;25.60;1.00;;;;;;5048646;28;20419;-69
2022/05/18 07:39:20;;;;;;;16.40;4.63;;;25.50;1.00;;;;;;5050192;28;20165;-70
2022/05/18 07:41:46;;;;;;;7.27;4.90;;;25.50;1.00;;;;;;5048838;28;20414;-70
2022/05/18 07:44:12;;;;;;;9.60;5.27;;;25.60;1.00;;;;;;5049698;28;21007;-70
2022/05/18 07:46:38;;;;;;;6.30;5.07;;;26.10;1.00;;;;;;5049368;28;20266;-70
2022/05/18 07:49:05;;;;;;;9.83;5.37;;;26.10;1.00;;;;;;5047914;28;20192;-69
2022/05/18 07:51:30;;;;;;;7.37;4.53;;;26.30;1.00;;;;;;5047482;28;20636;-71
2022/05/18 07:53:56;;;;;;;8.70;4.80;;;26.50;1.00;;;;;;5049620;28;20450;-70
2022/05/18 07:56:21;;;;;;;8.60;4.70;;;26.80;1.00;;;;;;5033571;28;20272;-70
2022/05/18 07:58:47;;;;;;;8.10;5.07;;;26.70;1.00;;;;;;5029446;28;20193;-70
2022/05/18 08:01:12;;;;;;;7.07;4.50;;;26.70;1.00;;;;;;5032748;28;20176;-70
2022/05/18 08:03:38;;;;;;;7.83;4.80;;;26.80;1.00;;;;;;5038937;28;20250;-71
2022/05/18 08:06:04;;;;;;;4.80;4.27;;;27.00;1.00;;;;;;5049061;28;20259;-71
2022/05/18 08:08:29;;;;;;;7.53;4.10;;;26.90;1.00;;;;;;5049467;28;20667;-70
2022/05/18 08:16:25;;;;;;;8.80;4.60;;;27.20;1.00;;;;;;5049333;28;20458;-69
2022/05/18 08:18:50;;;;;;;7.87;4.47;;;27.40;1.00;;;;;;5048472;28;20169;-70
2022/05/18 08:21:17;;;;;;;8.33;4.60;;;27.50;1.00;;;;;;5048010;28;20658;-71
2022/05/18 08:23:43;;;;;;;7.20;4.87;;;27.60;1.00;;;;;;5047758;28;20180;-71
2022/05/18 08:26:08;;;;;;;6.63;4.47;;;27.70;1.00;;;;;;5047099;28;20180;-70
2022/05/18 08:28:34;;;;;;;5.87;4.90;;;27.80;1.00;;;;;;5047622;28;20189;-70
2022/05/18 08:31:00;;;;;;;7.80;5.03;;;27.80;1.00;;;;;;5041874;28;20169;-69
2022/05/18 08:33:28;;;;;;;7.80;4.77;;;29.10;1.00;;;;;;5025911;28;20502;-70
2022/05/18 08:35:54;;;;;;;6.07;4.20;;;28.20;1.00;;;;;;5027408;28;20177;-70
2022/05/18 08:38:20;;;;;;;6.10;5.13;;;28.50;1.00;;;;;;5021826;28;20189;-70
2022/05/18 08:40:51;;;;;;;6.97;5.13;;;30.50;1.00;;;;;;5037145;28;20172;-70
2022/05/18 08:43:39;;;;;;;6.30;4.57;;;29.10;1.00;;;;;;5043047;28;20260;-70
2022/05/18 08:46:23;;;;;;;8.43;4.80;;;29.60;1.00;;;;;;5048297;28;20450;-69
2022/05/18 08:49:12;;;;;;;5.90;4.40;;;30.70;1.00;;;;;;5046699;28;20164;-70
2022/05/18 08:51:53;;;;;;;7.57;4.30;;;31.30;1.00;;;;;;5046216;28;20196;-70
2022/05/18 08:54:48;;;;;;;7.43;4.70;;;31.80;1.00;;;;;;5048759;28;20165;-70
2022/05/18 08:57:21;;;;;;;8.05;4.47;;;31.90;1.00;;;;;;5047120;28;20192;-71
2022/05/18 08:59:52;;;;;;;7.68;4.60;;;31.60;1.00;;;;;;5024404;28;20230;-70
2022/05/18 09:02:26;;;;;;;9.50;4.53;;;31.70;1.00;;;;;;5028255;28;20189;-70
2022/05/18 09:04:54;;;;;;;6.47;4.45;;;32.60;1.00;;;;;;5027910;28;20628;-71
2022/05/18 09:07:23;;;;;;;6.72;4.50;;;33.60;1.00;;;;;;5020829;28;20200;-71
2022/05/18 09:10:13;;;;;;;7.32;4.90;;;34.40;1.00;;;;;;5028775;28;20174;-71
2022/05/18 09:12:44;;;;;;;6.63;5.10;;;34.60;1.00;;;;;;5047498;28;20192;-70
2022/05/18 09:15:13;;;;;;;8.93;4.47;;;35.10;1.00;;;;;;5047637;28;20167;-70
2022/05/18 09:17:55;;;;;;;6.25;4.65;;;35.40;1.00;;;;;;5046486;28;20702;-71
2022/05/18 09:20:40;;;;;;;6.07;4.40;;;35.50;1.00;;;;;;5048468;28;20669;-71
2022/05/18 09:23:30;;;;;;;5.07;4.10;;;35.60;1.00;;;;;;5044789;28;20179;-71
2022/05/18 09:26:31;;;;;;;6.85;4.53;;;35.80;1.00;;;;;;5040822;28;20197;-71
2022/05/18 09:29:05;;;;;;;8.02;4.75;;;35.60;1.00;;;;;;5006587;28;20556;-71
2022/05/18 09:32:00;;;;;;;9.55;4.40;;;35.90;1.00;;;;;;5007447;28;20170;-71
2022/05/18 09:34:56;;;;;;;9.38;4.30;;;36.70;1.00;;;;;;5007491;28;20193;-71
2022/05/18 09:37:37;;;;;;;5.70;3.70;;;37.10;1.00;;;;;;5007297;28;20272;-71
2022/05/18 09:40:16;;;;;;;7.65;4.13;;;37.40;1.00;;;;;;5007236;28;20609;-70
2022/05/18 09:42:48;;;;;;;5.10;4.32;;;37.90;1.00;;;;;;5007948;28;20692;-71
2022/05/18 09:45:18;;;;;;;6.78;4.38;;;38.00;1.00;;;;;;5008388;28;20239;-72
2022/05/18 09:47:59;;;;;;;6.28;3.78;;;37.90;1.00;;;;;;5006579;28;20273;-70
2022/05/18 09:50:26;;;;;;;8.35;3.78;;;38.60;1.00;;;;;;5008606;28;20165;-71
2022/05/18 09:52:52;;;;;;;4.97;3.67;;;39.50;1.00;;;;;;5021851;28;20224;-70
2022/05/18 09:55:21;;;;;;;5.95;4.03;;;39.20;1.00;;;;;;5017255;28;20169;-72
2022/05/18 09:58:07;;;;;;;6.65;3.85;;;39.00;1.00;;;;;;5025793;28;20211;-72
2022/05/18 10:00:35;;;;;;;7.88;3.75;;;39.40;1.00;;;;;;5028548;28;20169;-72
2022/05/18 10:08:53;;;;;;;9.27;3.50;;;39.40;1.00;;;;;;5027973;28;20294;-72
2022/05/18 10:11:26;;;;;;;4.28;3.10;;;38.90;1.00;;;;;;5026938;28;20278;-72
2022/05/18 10:13:59;;;;;;;4.63;3.58;;;39.20;1.00;;;;;;5027983;28;20184;-71
2022/05/18 10:16:49;;;;;;;5.20;3.40;;;39.30;1.00;;;;;;5027471;28;20544;-71
2022/05/18 10:19:43;;;;;;;11.15;3.40;;;39.30;1.00;;;;;;5027318;28;20330;-72
2022/05/18 10:22:13;;;;;;;5.07;3.47;;;39.60;1.00;;;;;;5025854;28;20186;-70
2022/05/18 10:24:44;;;;;;;3.20;2.60;;;41.00;1.00;;;;;;5027388;28;20502;-71
2022/05/18 10:27:22;;;;;;;4.47;3.05;;;41.00;1.00;;;;;;5039135;28;20192;-72
2022/05/18 10:30:08;;;;;;;4.72;3.00;;;40.80;1.00;;;;;;5029951;28;20176;-72
2022/05/18 10:32:37;;;;;;;6.38;3.00;;;40.60;1.00;;;;;;5024175;28;20200;-72
2022/05/18 10:35:03;;;;;;;3.88;3.17;;;40.70;1.00;;;;;;5006522;28;20249;-70
2022/05/18 10:37:38;;;;;;;4.85;3.55;;;40.80;1.00;;;;;;5005873;28;20190;-70
2022/05/18 10:40:11;;;;;;;5.20;3.20;;;41.00;1.00;;;;;;5008067;28;20173;-72
2022/05/18 10:43:12;;;;;;;5.95;3.15;;;40.90;1.00;;;;;;5006879;28;20667;-71
2022/05/18 10:45:38;;;;;;;6.38;3.25;;;41.00;1.00;;;;;;5007313;28;20584;-71
2022/05/18 10:48:18;;;;;;;10.35;3.10;;;41.70;1.00;;;;;;5009751;28;20204;-71
2022/05/18 10:50:45;;;;;;;4.20;3.00;;;42.00;1.00;;;;;;5011641;28;20180;-71
2022/05/18 10:53:13;;;;;;;4.32;2.60;;;42.10;1.00;;;;;;5008477;28;20235;-72
2022/05/18 10:55:57;;;;;;;5.03;2.83;;;42.40;1.00;;;;;;5027971;28;20172;-71
2022/05/18 10:58:26;;;;;;;6.00;2.92;;;42.70;1.00;;;;;;5021479;28;20734;-71
2022/05/18 11:01:18;;;;;;;4.72;2.63;;;42.90;1.00;;;;;;5010592;28;20189;-71
2022/05/18 11:03:49;;;;;;;6.30;3.10;;;43.60;1.00;;;;;;5008427;28;20265;-71
2022/05/18 11:06:29;;;;;;;4.22;2.60;;;43.70;1.00;;;;;;5013137;28;20224;-71
2022/05/18 11:09:00;;;;;;;4.25;2.45;;;43.70;1.00;;;;;;5028631;28;20716;-72
2022/05/18 11:11:37;;;;;;;3.70;2.75;;;43.40;1.00;;;;;;5028319;28;20272;-72
2022/05/18 11:14:14;;;;;;;5.03;2.80;;;43.20;1.00;;;;;;5030912;28;20169;-72
2022/05/18 11:17:24;;;;;;;4.88;2.67;;;43.10;1.00;;;;;;5030787;28;20175;-72
2022/05/18 11:20:01;;;;;;;5.82;2.88;;;43.10;1.00;;;;;;5028580;28;20200;-72
2022/05/18 11:23:02;;;;;;;4.68;2.80;;;42.60;1.00;;;;;;5028208;28;20259;-72
2022/05/18 11:25:42;;;;;;;4.72;2.25;;;42.80;1.00;;;;;;5035539;28;20220;-71
2022/05/18 11:28:20;;;;;;;4.68;2.65;;;42.90;1.00;;;;;;5036032;28;20204;-72
2022/05/18 11:31:26;;;;;;;4.72;2.33;;;43.20;1.00;;;;;;5049318;28;20172;-72
2022/05/18 11:34:13;;;;;;;4.60;2.25;;;43.60;1.00;;;;;;5045532;28;20287;-72
2022/05/18 11:37:10;;;;;;;10.70;2.72;;;43.40;1.00;;;;;;5048740;28;20173;-72
2022/05/18 11:39:50;;;;;;;7.82;2.60;;;43.20;1.00;;;;;;5049907;28;20168;-72
2022/05/18 11:42:55;;;;;;;4.65;2.10;;;42.50;1.00;;;;;;5049380;28;20251;-71
2022/05/18 11:45:51;;;;;;;4.10;2.30;;;42.00;1.00;;;;;;5048823;28;20206;-72
2022/05/18 11:48:41;;;;;;;5.45;2.50;;;41.90;1.00;;;;;;5048984;28;20208;-72
2022/05/18 11:51:23;;;;;;;4.88;2.75;;;41.10;1.00;;;;;;5037862;28;20222;-70
2022/05/18 11:54:10;;;;;;;4.95;2.45;;;41.20;1.00;;;;;;5039873;28;20169;-72
2022/05/18 11:57:04;;;;;;;5.88;2.65;;;40.90;1.00;;;;;;5031075;28;20220;-71
2022/05/18 11:59:57;;;;;;;7.60;2.80;;;40.70;1.00;;;;;;5029827;28;20267;-72
2022/05/18 12:02:35;;;;;;;3.83;2.20;;;40.70;1.00;;;;;;5029048;28;20222;-72
2022/05/18 12:05:19;;;;;;;3.35;2.38;;;41.40;1.00;;;;;;5024233;28;20183;-72
2022/05/18 12:08:25;;;;;;;4.60;2.78;;;41.30;1.00;;;;;;5040974;28;20650;-72
2022/05/18 12:10:59;;;;;;;5.70;2.90;;;41.50;1.00;;;;;;5049340;28;20240;-71
2022/05/18 12:13:37;;;;;;;5.40;2.80;;;42.10;1.00;;;;;;5049394;28;20198;-71
2022/05/18 12:16:02;;;;;;;6.20;2.70;;;42.50;1.00;;;;;;5049659;28;20165;-71
2022/05/18 12:18:48;;;;;;;5.05;2.47;;;42.50;1.00;;;;;;5048168;28;20187;-72
2022/05/18 12:21:20;;;;;;;5.10;2.50;;;42.50;1.00;;;;;;5028310;28;20667;-71
2022/05/18 12:23:50;;;;;;;3.38;2.30;;;43.10;1.00;;;;;;5029181;28;20165;-72
2022/05/18 12:26:19;;;;;;;3.28;2.10;;;42.70;1.00;;;;;;5028695;28;20161;-72
2022/05/18 12:28:45;;;;;;;4.13;2.10;;;42.10;1.00;;;;;;5029579;28;20188;-71
2022/05/18 12:31:12;;;;;;;5.20;2.47;;;41.70;1.00;;;;;;5028247;28;20169;-71
2022/05/18 12:34:01;;;;;;;5.28;2.40;;;41.60;1.00;;;;;;5027923;28;20169;-72
2022/05/18 12:36:51;;;;;;;3.40;2.25;;;42.20;1.00;;;;;;5029296;28;20323;-71
2022/05/18 12:39:25;;;;;;;5.13;2.65;;;42.80;1.00;;;;;;5009403;28;20166;-72
2022/05/18 12:41:55;;;;;;;4.15;2.40;;;42.30;1.00;;;;;;5008381;28;20176;-71
2022/05/18 12:44:34;;;;;;;5.65;2.60;;;42.20;1.00;;;;;;5009320;28;20710;-71
2022/05/18 12:47:03;;;;;;;5.70;2.72;;;42.60;1.00;;;;;;5009223;28;20209;-72
2022/05/18 12:49:39;;;;;;;3.55;2.47;;;43.00;1.00;;;;;;5008410;28;20158;-71
2022/05/18 12:52:30;;;;;;;3.75;2.30;;;42.90;1.00;;;;;;5015470;28;20666;-71
2022/05/18 12:55:00;;;;;;;4.03;2.60;;;43.20;1.00;;;;;;5027051;28;20528;-71
2022/05/18 12:57:40;;;;;;;6.40;2.30;;;43.10;1.00;;;;;;5027074;28;20549;-72
2022/05/18 13:00:39;;;;;;;3.45;2.17;;;43.80;1.00;;;;;;5029035;28;20170;-71
2022/05/18 13:03:10;;;;;;;5.90;2.53;;;43.20;1.00;;;;;;5026877;28;20636;-72
2022/05/18 13:05:44;;;;;;;4.53;2.20;;;42.90;1.00;;;;;;5028755;28;20238;-71
2022/05/18 13:08:15;;;;;;;3.58;2.38;;;42.80;1.00;;;;;;5024207;28;20271;-70
2022/05/18 13:11:01;;;;;;;5.05;2.50;;;43.00;1.00;;;;;;5028054;28;20173;-72
2022/05/18 13:13:26;;;;;;;3.97;2.13;;;42.50;1.00;;;;;;5028528;28;20227;-72
2022/05/18 13:15:59;;;;;;;5.97;2.60;;;42.90;1.00;;;;;;5028404;28;20174;-71
2022/05/18 13:18:32;;;;;;;5.00;2.80;;;42.60;1.00;;;;;;5027533;28;20277;-71
2022/05/18 13:21:06;;;;;;;6.47;2.40;;;42.40;1.00;;;;;;5026245;28;20276;-71
2022/05/18 13:23:32;;;;;;;5.25;2.80;;;42.40;1.00;;;;;;5028051;28;20662;-72
2022/05/18 13:26:22;;;;;;;8.10;3.08;;;43.00;1.00;;;;;;5027897;28;20185;-71
2022/05/18 13:28:49;;;;;;;8.23;2.83;;;43.10;1.00;;;;;;5028197;28;20223;-72
2022/05/18 13:31:15;;;;;;;4.18;2.60;;;43.40;1.00;;;;;;5027448;28;20173;-71